Time;durP1;ratioP1;P1;durP2;ratioP2;P2;SDS_P1;SDS_P2;PMS_P1;PMS_P2;Temp;Humidity;BMP_temperature;BMP_pressure;BME280_temperature;BME280_humidity;BME280_pressure;Samples;Min_cycle;Max_cycle;Signal;HPM_P1;HPM_P2
2023/06/04 00:01:55;;;;;;;;;;;19.70;47.60;;;;;;5091129;28;20435;-68
2023/06/04 00:04:23;;;;;;;;;;;19.70;47.60;;;;;;5091381;28;19927;-68
2023/06/04 00:06:48;;;;;;;;;;;19.70;47.60;;;;;;5091198;28;19935;-68
2023/06/04 00:09:14;;;;;;;;;;;19.70;48.40;;;;;;5092278;28;19924;-69
2023/06/04 00:11:40;;;;;;;;;;;19.60;47.60;;;;;;5091284;28;19920;-69
2023/06/04 00:14:05;;;;;;;;;;;19.60;47.60;;;;;;5090980;28;19927;-68
2023/06/04 00:16:31;;;;;;;;;;;19.60;47.70;;;;;;5125280;28;19924;-73
2023/06/04 00:18:56;;;;;;;;;;;19.60;47.70;;;;;;5090914;28;19920;-69
2023/06/04 00:21:22;;;;;;;;;;;19.60;47.70;;;;;;5091010;28;19920;-68
2023/06/04 00:23:47;;;;;;;;;;;19.60;47.70;;;;;;5090891;28;19947;-69
2023/06/04 00:26:13;;;;;;;;;;;19.60;47.80;;;;;;5091247;28;19975;-69
2023/06/04 00:28:38;;;;;;;;;;;19.60;47.80;;;;;;5090779;28;19959;-69
2023/06/04 00:31:05;;;;;;;;;;;19.60;47.80;;;;;;5125072;28;19969;-68
2023/06/04 00:33:35;;;;;;;;;;;19.50;47.80;;;;;;5092161;28;20326;-68
2023/06/04 00:36:00;;;;;;;;;;;19.60;47.80;;;;;;5090764;28;20372;-69
2023/06/04 00:38:27;;;;;;;;;;;19.50;47.80;;;;;;5090876;28;19946;-69
2023/06/04 00:40:52;;;;;;;;;;;19.50;47.80;;;;;;5092120;28;19927;-69
2023/06/04 00:43:19;;;;;;;;;;;19.50;47.80;;;;;;5124781;28;19920;-69
2023/06/04 00:45:44;;;;;;;;;;;19.50;47.80;;;;;;5090934;28;20117;-69
2023/06/04 00:48:10;;;;;;;;;;;19.50;47.80;;;;;;5090715;28;19927;-69
2023/06/04 00:50:38;;;;;;;;;;;19.50;47.80;;;;;;5124940;28;19927;-69
2023/06/04 00:53:04;;;;;;;;;;;19.50;47.90;;;;;;5090732;28;19920;-69
2023/06/04 00:55:31;;;;;;;;;;;19.50;47.90;;;;;;5090624;28;20061;-68
2023/06/04 00:57:57;;;;;;;;;;;19.50;47.90;;;;;;5090156;28;20295;-69
2023/06/04 01:00:22;;;;;;;;;;;19.50;47.90;;;;;;5091969;28;19920;-69
2023/06/04 01:02:51;;;;;;;;;;;19.50;48.00;;;;;;5090569;28;20327;-69
2023/06/04 01:07:57;;;;;;;;;;;19.50;48.00;;;;;;5090008;28;19918;-69
2023/06/04 01:10:22;;;;;;;;;;;19.50;48.00;;;;;;5088464;28;19920;-73
2023/06/04 01:12:48;;;;;;;;;;;19.40;47.90;;;;;;5088575;28;19924;-69
2023/06/04 01:15:14;;;;;;;;;;;19.50;48.00;;;;;;5088525;28;20265;-69
2023/06/04 01:17:41;;;;;;;;;;;19.40;48.00;;;;;;5105504;28;19924;-69
2023/06/04 01:20:16;;;;;;;;;;;19.40;48.00;;;;;;5088688;28;19943;-69
2023/06/04 01:25:26;;;;;;;;;;;19.40;48.10;;;;;;5110293;27;19938;-69
2023/06/04 01:27:55;;;;;;;;;;;19.40;48.10;;;;;;5109177;28;19920;-68
2023/06/04 01:30:23;;;;;;;;;;;19.40;48.20;;;;;;5109182;28;20344;-69
2023/06/04 01:32:49;;;;;;;;;;;19.30;48.10;;;;;;5108906;28;19920;-68
2023/06/04 01:35:14;;;;;;;;;;;19.30;48.20;;;;;;5109992;28;19920;-68
2023/06/04 01:37:40;;;;;;;;;;;19.30;48.20;;;;;;5109081;28;19965;-69
2023/06/04 01:40:07;;;;;;;;;;;19.30;48.20;;;;;;5109035;28;19927;-69
2023/06/04 01:42:33;;;;;;;;;;;19.30;48.20;;;;;;5109966;28;19964;-69
2023/06/04 01:44:59;;;;;;;;;;;19.30;48.20;;;;;;5108643;28;20022;-69
2023/06/04 01:47:24;;;;;;;;;;;19.30;48.20;;;;;;5108695;28;19927;-68
2023/06/04 01:49:50;;;;;;;;;;;19.30;48.30;;;;;;5108605;28;19928;-68
2023/06/04 01:52:16;;;;;;;;;;;19.20;48.20;;;;;;5109741;28;19920;-69
2023/06/04 01:54:42;;;;;;;;;;;19.20;48.30;;;;;;5109023;28;19927;-68
2023/06/04 01:57:09;;;;;;;;;;;19.20;48.30;;;;;;5109665;28;19924;-69
2023/06/04 01:59:36;;;;;;;;;;;19.20;48.30;;;;;;5108651;28;19920;-69
2023/06/04 02:02:02;;;;;;;;;;;19.20;48.30;;;;;;5108272;28;20306;-69
2023/06/04 02:04:27;;;;;;;;;;;19.20;48.30;;;;;;5108222;28;19931;-69
2023/06/04 02:06:53;;;;;;;;;;;19.20;48.30;;;;;;5109514;28;19965;-69
2023/06/04 02:09:18;;;;;;;;;;;19.20;48.30;;;;;;5108429;28;19955;-69
2023/06/04 02:11:44;;;;;;;;;;;19.20;48.30;;;;;;5108011;28;19927;-69
2023/06/04 02:14:10;;;;;;;;;;;19.20;48.30;;;;;;5109410;28;19927;-69
2023/06/04 02:16:35;;;;;;;;;;;19.20;48.40;;;;;;5107987;28;19920;-69
2023/06/04 02:19:01;;;;;;;;;;;19.20;48.40;;;;;;5108298;28;19920;-69
2023/06/04 02:21:26;;;;;;;;;;;19.10;48.40;;;;;;5108020;28;19921;-69
2023/06/04 02:23:52;;;;;;;;;;;19.20;48.40;;;;;;5107622;28;19931;-69
2023/06/04 02:26:17;;;;;;;;;;;19.20;48.40;;;;;;5142097;27;19920;-69
2023/06/04 02:28:42;;;;;;;;;;;19.10;48.50;;;;;;5142080;27;19920;-69
2023/06/04 02:31:08;;;;;;;;;;;19.10;48.50;;;;;;5107751;28;19967;-72
2023/06/04 02:33:33;;;;;;;;;;;19.10;48.50;;;;;;5108899;28;19924;-72
2023/06/04 02:36:00;;;;;;;;;;;19.10;48.50;;;;;;5099134;28;19921;-69
2023/06/04 02:38:25;;;;;;;;;;;19.10;48.50;;;;;;5094322;28;20347;-69
2023/06/04 02:40:51;;;;;;;;;;;19.10;48.50;;;;;;5093944;28;20002;-69
2023/06/04 02:43:16;;;;;;;;;;;19.10;48.60;;;;;;5095295;28;20027;-69
2023/06/04 02:45:42;;;;;;;;;;;19.10;48.60;;;;;;5077363;28;20325;-69
2023/06/04 02:48:07;;;;;;;;;;;19.10;48.60;;;;;;5095187;28;19924;-69
2023/06/04 02:50:33;;;;;;;;;;;19.10;48.60;;;;;;5127949;27;19924;-69
2023/06/04 02:52:59;;;;;;;;;;;19.00;48.60;;;;;;5093995;28;19927;-69
2023/06/04 02:55:25;;;;;;;;;;;19.00;48.60;;;;;;5093680;28;20003;-69
2023/06/04 02:57:51;;;;;;;;;;;19.00;48.70;;;;;;5095110;28;20512;-69
2023/06/04 03:00:17;;;;;;;;;;;19.00;48.70;;;;;;5095095;28;19927;-69
2023/06/04 03:02:44;;;;;;;;;;;19.00;48.70;;;;;;5128131;27;19920;-69
2023/06/04 03:05:10;;;;;;;;;;;19.00;48.80;;;;;;5093428;28;19931;-69
2023/06/04 03:07:36;;;;;;;;;;;18.90;48.70;;;;;;5093531;28;19973;-69
2023/06/04 03:10:03;;;;;;;;;;;19.00;48.80;;;;;;5093353;28;19920;-69
2023/06/04 03:12:29;;;;;;;;;;;19.00;48.80;;;;;;5093236;28;20504;-69
2023/06/04 03:14:55;;;;;;;;;;;19.00;48.80;;;;;;5093256;28;20006;-69
2023/06/04 03:17:20;;;;;;;;;;;19.00;48.80;;;;;;5093686;28;19947;-69
2023/06/04 03:19:46;;;;;;;;;;;19.00;48.80;;;;;;5094580;28;19927;-69
2023/06/04 03:22:11;;;;;;;;;;;19.00;48.80;;;;;;5094433;28;20014;-69
2023/06/04 03:24:38;;;;;;;;;;;19.00;48.80;;;;;;5092928;28;19932;-69
2023/06/04 03:27:05;;;;;;;;;;;18.90;48.80;;;;;;5093062;28;19924;-69
2023/06/04 03:29:31;;;;;;;;;;;18.90;48.80;;;;;;5093419;28;19920;-69
2023/06/04 03:31:57;;;;;;;;;;;18.90;48.80;;;;;;5093155;28;19928;-69
2023/06/04 03:34:25;;;;;;;;;;;18.90;48.80;;;;;;5093185;28;20019;-69
2023/06/04 03:36:52;;;;;;;;;;;18.90;48.80;;;;;;5092926;28;19920;-69
2023/06/04 03:39:17;;;;;;;;;;;18.90;48.90;;;;;;5092855;28;20014;-69
2023/06/04 03:41:43;;;;;;;;;;;18.90;48.90;;;;;;5094020;28;20366;-69
2023/06/04 03:44:08;;;;;;;;;;;18.90;48.90;;;;;;5094029;28;19931;-69
2023/06/04 03:46:35;;;;;;;;;;;18.90;48.90;;;;;;5092294;28;19963;-69
2023/06/04 03:49:00;;;;;;;;;;;18.90;48.90;;;;;;5092770;28;20006;-69
2023/06/04 03:51:26;;;;;;;;;;;18.90;49.00;;;;;;5092591;28;20353;-69
2023/06/04 03:53:51;;;;;;;;;;;18.90;49.70;;;;;;5093071;28;19924;-68
2023/06/04 03:56:17;;;;;;;;;;;18.80;48.90;;;;;;5092455;28;19920;-69
2023/06/04 03:58:43;;;;;;;;;;;18.80;48.90;;;;;;5092714;28;19984;-69
2023/06/04 04:01:10;;;;;;;;;;;18.80;48.90;;;;;;5092668;28;19927;-69
2023/06/04 04:03:36;;;;;;;;;;;18.80;49.00;;;;;;5092612;28;19973;-69
2023/06/04 04:06:01;;;;;;;;;;;18.80;49.00;;;;;;5092616;28;19971;-69
2023/06/04 04:08:31;;;;;;;;;;;18.80;49.00;;;;;;5092360;28;19927;-69
2023/06/04 04:10:57;;;;;;;;;;;18.80;49.00;;;;;;5092084;28;19927;-74
2023/06/04 04:13:22;;;;;;;;;;;18.80;49.00;;;;;;5092504;28;19924;-69
2023/06/04 04:15:52;;;;;;;;;;;18.80;49.00;;;;;;5126273;27;19927;-69
2023/06/04 04:18:19;;;;;;;;;;;18.80;49.10;;;;;;5092426;28;19920;-69
2023/06/04 04:20:45;;;;;;;;;;;18.80;49.10;;;;;;5092075;28;19920;-69
2023/06/04 04:23:12;;;;;;;;;;;18.80;49.10;;;;;;5094402;28;20015;-69
2023/06/04 04:25:38;;;;;;;;;;;18.80;49.10;;;;;;5113653;28;19924;-69
2023/06/04 04:28:06;;;;;;;;;;;18.80;49.10;;;;;;5113553;28;19927;-69
2023/06/04 04:30:34;;;;;;;;;;;18.80;49.10;;;;;;5095263;28;19919;-69
2023/06/04 04:33:00;;;;;;;;;;;18.80;49.10;;;;;;5095498;28;19920;-69
2023/06/04 04:35:26;;;;;;;;;;;18.80;49.20;;;;;;5129279;27;20014;-69
2023/06/04 04:37:52;;;;;;;;;;;18.70;49.10;;;;;;5129466;27;19920;-69
2023/06/04 04:40:17;;;;;;;;;;;18.80;49.20;;;;;;5095471;28;19989;-69
2023/06/04 04:42:43;;;;;;;;;;;18.80;49.20;;;;;;5129081;27;20379;-69
2023/06/04 04:45:09;;;;;;;;;;;18.70;49.10;;;;;;5094964;28;19920;-69
2023/06/04 04:47:34;;;;;;;;;;;18.70;49.20;;;;;;5095257;28;20294;-69
2023/06/04 04:50:00;;;;;;;;;;;18.70;49.20;;;;;;5113434;28;19920;-69
2023/06/04 04:52:25;;;;;;;;;;;18.80;49.20;;;;;;5113253;28;19926;-69
2023/06/04 04:54:55;;;;;;;;;;;18.70;49.20;;;;;;5129101;27;19919;-69
2023/06/04 04:57:20;;;;;;;;;;;18.70;49.20;;;;;;5095055;28;19920;-69
2023/06/04 04:59:46;;;;;;;;;;;18.70;49.30;;;;;;5094603;28;19942;-69
2023/06/04 05:02:11;;;;;;;;;;;18.70;49.30;;;;;;5113191;28;20007;-69
2023/06/04 05:04:37;;;;;;;;;;;18.70;49.30;;;;;;5112966;28;19920;-69
2023/06/04 05:07:03;;;;;;;;;;;18.70;49.30;;;;;;5094710;28;20010;-69
2023/06/04 05:09:28;;;;;;;;;;;18.70;49.40;;;;;;5094779;28;20024;-69
2023/06/04 05:11:54;;;;;;;;;;;18.70;49.40;;;;;;5128971;27;19930;-69
2023/06/04 05:14:19;;;;;;;;;;;18.70;49.40;;;;;;5094564;28;20335;-69
2023/06/04 05:16:45;;;;;;;;;;;18.70;49.40;;;;;;5113044;28;19919;-69
2023/06/04 05:19:10;;;;;;;;;;;18.70;49.40;;;;;;5094572;28;19943;-74
2023/06/04 05:21:36;;;;;;;;;;;18.70;49.40;;;;;;5112816;28;19927;-69
2023/06/04 05:24:02;;;;;;;;;;;18.70;49.40;;;;;;5094152;28;20018;-70
2023/06/04 05:26:29;;;;;;;;;;;18.70;49.50;;;;;;5094793;28;19920;-69
2023/06/04 05:28:55;;;;;;;;;;;18.70;49.50;;;;;;5094733;28;19920;-69
2023/06/04 05:31:21;;;;;;;;;;;18.70;49.50;;;;;;5094507;28;19961;-69
2023/06/04 05:33:47;;;;;;;;;;;18.70;49.50;;;;;;5094453;28;20271;-69
2023/06/04 05:36:13;;;;;;;;;;;18.70;49.50;;;;;;5094365;28;19923;-69
2023/06/04 05:38:39;;;;;;;;;;;18.70;49.50;;;;;;5112680;28;19920;-69
2023/06/04 05:41:04;;;;;;;;;;;18.70;49.50;;;;;;5112690;28;19919;-69
2023/06/04 05:43:30;;;;;;;;;;;18.70;49.60;;;;;;5094388;28;20383;-69
2023/06/04 05:45:55;;;;;;;;;;;18.70;49.60;;;;;;5094309;28;19920;-69
2023/06/04 05:48:21;;;;;;;;;;;18.70;49.60;;;;;;5094293;28;19920;-74
2023/06/04 05:50:47;;;;;;;;;;;18.70;49.60;;;;;;5112647;28;19919;-69
2023/06/04 05:53:12;;;;;;;;;;;18.80;49.70;;;;;;5094349;28;20015;-69
2023/06/04 05:55:38;;;;;;;;;;;18.70;49.70;;;;;;5094506;28;20030;-69
2023/06/04 05:58:04;;;;;;;;;;;18.70;49.70;;;;;;5094434;28;19930;-69
2023/06/04 06:00:29;;;;;;;;;;;18.70;49.70;;;;;;5112585;28;20014;-69
2023/06/04 06:02:55;;;;;;;;;;;18.70;49.80;;;;;;5094495;28;20383;-69
2023/06/04 06:05:20;;;;;;;;;;;18.70;49.70;;;;;;5094010;28;19924;-69
2023/06/04 06:07:46;;;;;;;;;;;18.70;49.70;;;;;;5094405;28;19928;-69
2023/06/04 06:10:12;;;;;;;;;;;18.70;49.80;;;;;;5112866;28;19920;-69
2023/06/04 06:12:38;;;;;;;;;;;18.70;49.70;;;;;;5116262;28;20018;-69
2023/06/04 06:15:04;;;;;;;;;;;18.70;49.80;;;;;;5116057;28;19954;-69
2023/06/04 06:17:30;;;;;;;;;;;18.70;49.80;;;;;;5097948;28;19926;-69
2023/06/04 06:19:55;;;;;;;;;;;18.70;49.80;;;;;;5131949;27;20002;-69
2023/06/04 06:22:21;;;;;;;;;;;18.70;49.90;;;;;;5097737;28;19968;-69
2023/06/04 06:24:48;;;;;;;;;;;18.70;49.90;;;;;;5097252;28;19930;-69
2023/06/04 06:27:15;;;;;;;;;;;18.80;50.70;;;;;;5097694;28;19924;-69
2023/06/04 06:29:41;;;;;;;;;;;18.80;50.00;;;;;;5097541;28;19920;-69
2023/06/04 06:32:07;;;;;;;;;;;18.70;49.90;;;;;;5097572;28;19945;-69
2023/06/04 06:34:32;;;;;;;;;;;18.80;49.90;;;;;;5097846;28;20014;-69
2023/06/04 06:36:58;;;;;;;;;;;18.80;50.00;;;;;;5115789;28;20393;-69
2023/06/04 06:39:23;;;;;;;;;;;18.80;50.00;;;;;;5097511;28;19966;-69
2023/06/04 06:41:49;;;;;;;;;;;18.80;50.00;;;;;;5131776;27;20345;-69
2023/06/04 06:44:15;;;;;;;;;;;18.80;50.00;;;;;;5115580;28;19923;-69
2023/06/04 06:46:40;;;;;;;;;;;18.80;50.00;;;;;;5115212;28;19930;-69
2023/06/04 06:49:06;;;;;;;;;;;18.80;50.00;;;;;;5097526;28;20378;-69
2023/06/04 06:51:31;;;;;;;;;;;18.80;50.00;;;;;;5097409;28;19978;-69
2023/06/04 06:53:56;;;;;;;;;;;18.80;50.00;;;;;;5097125;28;20378;-69
2023/06/04 06:56:22;;;;;;;;;;;18.80;50.00;;;;;;5097376;28;19920;-69
2023/06/04 06:58:47;;;;;;;;;;;18.80;50.00;;;;;;5097009;28;19926;-69
2023/06/04 07:01:13;;;;;;;;;;;18.80;50.00;;;;;;5097187;28;20083;-68
2023/06/04 07:03:39;;;;;;;;;;;18.80;50.00;;;;;;5096848;28;19924;-69
2023/06/04 07:06:05;;;;;;;;;;;18.80;50.00;;;;;;5115197;28;20391;-68
2023/06/04 07:08:31;;;;;;;;;;;18.80;50.10;;;;;;5097207;28;19965;-69
2023/06/04 07:10:57;;;;;;;;;;;18.80;50.00;;;;;;5096626;28;19924;-69
2023/06/04 07:13:22;;;;;;;;;;;18.80;50.00;;;;;;5096641;28;19920;-69
2023/06/04 07:15:48;;;;;;;;;;;18.80;50.00;;;;;;5096710;28;19919;-69
2023/06/04 07:18:13;;;;;;;;;;;18.80;50.00;;;;;;5131105;27;19946;-69
2023/06/04 07:20:39;;;;;;;;;;;18.80;50.00;;;;;;5096702;28;20023;-69
2023/06/04 07:23:04;;;;;;;;;;;18.80;50.00;;;;;;5130513;27;20023;-69
2023/06/04 07:25:29;;;;;;;;;;;18.80;50.80;;;;;;5096710;28;20405;-69
2023/06/04 07:27:57;;;;;;;;;;;18.80;50.00;;;;;;5114681;28;19920;-69
2023/06/04 07:30:23;;;;;;;;;;;18.80;50.00;;;;;;5096509;28;19920;-68
2023/06/04 07:32:49;;;;;;;;;;;18.80;50.00;;;;;;5114589;28;19973;-69
2023/06/04 07:35:15;;;;;;;;;;;18.80;50.00;;;;;;5130405;27;20290;-69
2023/06/04 07:37:41;;;;;;;;;;;18.80;49.90;;;;;;5114555;28;19919;-69
2023/06/04 07:40:07;;;;;;;;;;;18.80;50.00;;;;;;5096350;28;19968;-69
2023/06/04 07:42:32;;;;;;;;;;;18.80;50.00;;;;;;5130294;27;19920;-69
2023/06/04 07:44:58;;;;;;;;;;;18.80;50.00;;;;;;5096136;28;19920;-69
2023/06/04 07:47:23;;;;;;;;;;;18.90;50.00;;;;;;5095931;28;19986;-69
2023/06/04 07:49:49;;;;;;;;;;;18.90;50.00;;;;;;5130545;27;19930;-69
2023/06/04 07:52:14;;;;;;;;;;;18.90;50.00;;;;;;5114361;28;20122;-69
2023/06/04 07:54:41;;;;;;;;;;;18.90;50.00;;;;;;5096295;28;19968;-69
2023/06/04 07:57:07;;;;;;;;;;;18.90;50.00;;;;;;5095894;28;20379;-69
2023/06/04 07:59:32;;;;;;;;;;;18.90;50.00;;;;;;5095818;28;19927;-69
2023/06/04 08:01:58;;;;;;;;;;;18.90;49.90;;;;;;5114113;28;19919;-69
2023/06/04 08:04:23;;;;;;;;;;;18.90;49.90;;;;;;5095677;28;20002;-69
2023/06/04 08:06:49;;;;;;;;;;;18.90;49.90;;;;;;5096115;28;19924;-68
2023/06/04 08:09:15;;;;;;;;;;;18.90;50.00;;;;;;5095666;28;20010;-69
2023/06/04 08:11:42;;;;;;;;;;;18.90;50.00;;;;;;5129834;27;20362;-69
2023/06/04 08:14:08;;;;;;;;;;;18.90;50.00;;;;;;5095606;28;19930;-69
2023/06/04 08:16:33;;;;;;;;;;;18.90;50.00;;;;;;5114091;28;20013;-69
2023/06/04 08:18:59;;;;;;;;;;;18.90;49.90;;;;;;5095723;28;19919;-69
2023/06/04 08:21:25;;;;;;;;;;;18.90;50.00;;;;;;5114246;28;20306;-69
2023/06/04 08:23:51;;;;;;;;;;;18.90;50.00;;;;;;5095531;28;20390;-69
2023/06/04 08:26:17;;;;;;;;;;;18.90;50.00;;;;;;5150166;27;19919;-69
2023/06/04 08:28:42;;;;;;;;;;;19.00;50.00;;;;;;5134225;27;19926;-68
2023/06/04 08:31:08;;;;;;;;;;;19.00;50.70;;;;;;5116015;27;20294;-69
2023/06/04 08:33:33;;;;;;;;;;;19.00;49.90;;;;;;5149533;27;19923;-69
2023/06/04 08:35:59;;;;;;;;;;;18.90;49.80;;;;;;5150300;27;19920;-69
2023/06/04 08:38:25;;;;;;;;;;;19.00;49.90;;;;;;5150268;27;19926;-69
2023/06/04 08:40:52;;;;;;;;;;;19.00;49.80;;;;;;5149929;27;19968;-69
2023/06/04 08:43:18;;;;;;;;;;;19.00;49.70;;;;;;5115701;27;19998;-69
2023/06/04 08:45:48;;;;;;;;;;;19.00;49.80;;;;;;5133819;27;19997;-69
2023/06/04 08:48:14;;;;;;;;;;;19.00;49.70;;;;;;5115767;27;19923;-69
2023/06/04 08:50:42;;;;;;;;;;;19.00;49.60;;;;;;5115283;27;20013;-69
2023/06/04 08:53:08;;;;;;;;;;;19.00;49.60;;;;;;5115320;27;19924;-69
2023/06/04 08:55:34;;;;;;;;;;;19.10;49.70;;;;;;5149688;27;19959;-69
2023/06/04 08:58:01;;;;;;;;;;;19.10;49.60;;;;;;5115673;27;20294;-69
2023/06/04 09:00:26;;;;;;;;;;;19.20;49.70;;;;;;5115170;27;19919;-69
2023/06/04 09:02:52;;;;;;;;;;;19.10;49.50;;;;;;5133552;27;19943;-69
2023/06/04 09:05:19;;;;;;;;;;;19.20;49.50;;;;;;5133336;27;19924;-69
2023/06/04 09:07:46;;;;;;;;;;;19.20;49.50;;;;;;5115441;27;20010;-69
2023/06/04 09:10:12;;;;;;;;;;;19.20;49.40;;;;;;5149360;27;19919;-69
2023/06/04 09:12:41;;;;;;;;;;;19.20;49.40;;;;;;5115121;27;19975;-69
2023/06/04 09:15:07;;;;;;;;;;;19.20;49.40;;;;;;5133530;27;20195;-69
2023/06/04 09:17:32;;;;;;;;;;;19.20;49.30;;;;;;5114970;27;19926;-69
2023/06/04 09:19:58;;;;;;;;;;;19.20;49.20;;;;;;5133373;27;19930;-69
2023/06/04 09:22:38;;;;;;;;;;;19.30;49.20;;;;;;5115199;28;19962;-69
2023/06/04 09:25:07;;;;;;;;;;;19.30;49.20;;;;;;5133005;28;19950;-69
2023/06/04 09:27:39;;;;;;;;;;;19.30;49.10;;;;;;5149264;27;19980;-69
2023/06/04 09:30:05;;;;;;;;;;;19.30;49.10;;;;;;5149591;27;19927;-69
2023/06/04 09:32:31;;;;;;;;;;;19.30;49.10;;;;;;5149487;27;20282;-69
2023/06/04 09:35:09;;;;;;;;;;;19.40;49.10;;;;;;5114849;28;19926;-69
2023/06/04 09:37:35;;;;;;;;;;;19.40;49.10;;;;;;5114708;28;19920;-69
2023/06/04 09:40:01;;;;;;;;;;;19.40;49.00;;;;;;5149246;27;19920;-69
2023/06/04 09:42:26;;;;;;;;;;;19.40;49.00;;;;;;5114697;28;19926;-74
2023/06/04 09:44:52;;;;;;;;;;;19.40;49.00;;;;;;5114875;27;19963;-69
2023/06/04 09:47:17;;;;;;;;;;;19.40;48.90;;;;;;5118770;27;19972;-69
2023/06/04 09:49:43;;;;;;;;;;;19.40;48.90;;;;;;5118828;27;19977;-68
2023/06/04 09:52:09;;;;;;;;;;;19.50;49.00;;;;;;5153130;27;19919;-69
2023/06/04 09:54:36;;;;;;;;;;;19.50;48.90;;;;;;5153511;27;19925;-69
2023/06/04 09:57:02;;;;;;;;;;;19.50;48.90;;;;;;5153337;27;19972;-69
2023/06/04 09:59:28;;;;;;;;;;;19.50;48.90;;;;;;5153062;27;19923;-69
2023/06/04 10:01:53;;;;;;;;;;;19.50;48.90;;;;;;5152957;27;20425;-69
2023/06/04 10:04:19;;;;;;;;;;;19.50;48.90;;;;;;5118498;27;19923;-68
2023/06/04 10:06:45;;;;;;;;;;;19.50;48.80;;;;;;5118794;27;19919;-68
2023/06/04 10:09:12;;;;;;;;;;;19.50;48.80;;;;;;5118736;27;19927;-69
2023/06/04 10:11:39;;;;;;;;;;;19.50;48.80;;;;;;5118643;27;20043;-69
2023/06/04 10:14:10;;;;;;;;;;;19.50;48.80;;;;;;5118339;27;19919;-69
2023/06/04 10:16:37;;;;;;;;;;;19.50;48.80;;;;;;5118267;27;19970;-68
2023/06/04 10:19:04;;;;;;;;;;;19.50;48.80;;;;;;5118567;27;19919;-69
2023/06/04 10:21:31;;;;;;;;;;;19.50;48.80;;;;;;5118569;27;19919;-69
2023/06/04 10:23:57;;;;;;;;;;;19.50;49.10;;;;;;5117832;27;20018;-74
2023/06/04 10:26:23;;;;;;;;;;;19.50;48.70;;;;;;5118164;27;20010;-69
2023/06/04 10:28:50;;;;;;;;;;;19.50;48.70;;;;;;5136504;27;19926;-69
2023/06/04 10:31:15;;;;;;;;;;;19.50;48.70;;;;;;5136348;27;19983;-74
2023/06/04 10:33:41;;;;;;;;;;;19.50;48.70;;;;;;5117915;27;20030;-69
2023/06/04 10:36:22;;;;;;;;;;;19.50;48.70;;;;;;5118430;27;19923;-68
2023/06/04 10:38:49;;;;;;;;;;;19.50;48.80;;;;;;5118014;27;19919;-69
2023/06/04 10:41:16;;;;;;;;;;;19.50;48.70;;;;;;5136485;27;19930;-68
2023/06/04 10:43:42;;;;;;;;;;;19.60;48.70;;;;;;5117939;27;19966;-68
2023/06/04 10:46:11;;;;;;;;;;;19.60;48.70;;;;;;5118082;27;19976;-69
2023/06/04 10:48:45;;;;;;;;;;;19.50;48.60;;;;;;5117695;27;20204;-68
2023/06/04 10:51:10;;;;;;;;;;;19.60;48.70;;;;;;5118023;27;19969;-74
2023/06/04 10:53:36;;;;;;;;;;;19.60;48.70;;;;;;5117552;27;19923;-69
2023/06/04 10:56:02;;;;;;;;;;;19.60;48.70;;;;;;5117147;27;19920;-69
2023/06/04 10:58:31;;;;;;;;;;;19.60;48.70;;;;;;5117486;27;19942;-69
2023/06/04 11:00:57;;;;;;;;;;;19.60;48.70;;;;;;5117366;27;19919;-68
2023/06/04 11:03:22;;;;;;;;;;;19.60;48.70;;;;;;5117373;27;19964;-68
2023/06/04 11:05:48;;;;;;;;;;;19.60;48.70;;;;;;5135774;27;20290;-69
2023/06/04 11:08:14;;;;;;;;;;;19.60;48.80;;;;;;5136160;27;19927;-69
2023/06/04 11:10:41;;;;;;;;;;;19.60;48.70;;;;;;5117191;27;20072;-69
2023/06/04 11:13:07;;;;;;;;;;;19.60;48.70;;;;;;5117238;27;19919;-68
2023/06/04 11:18:20;;;;;;;;;;;19.60;48.70;;;;;;5089986;28;20314;-69
2023/06/04 11:20:46;;;;;;;;;;;19.60;48.60;;;;;;5088489;28;19943;-68
2023/06/04 11:23:13;;;;;;;;;;;19.60;48.60;;;;;;5088526;28;20376;-69
2023/06/04 11:25:38;;;;;;;;;;;19.60;48.60;;;;;;5088519;28;19920;-68
2023/06/04 11:28:04;;;;;;;;;;;19.60;48.60;;;;;;5088451;28;20338;-74
2023/06/04 11:30:30;;;;;;;;;;;19.60;48.60;;;;;;5088386;28;19920;-74
2023/06/04 11:33:03;;;;;;;;;;;19.60;48.60;;;;;;5088460;28;19932;-68
2023/06/04 11:35:29;;;;;;;;;;;19.60;48.50;;;;;;5088563;28;20325;-68
2023/06/04 11:37:55;;;;;;;;;;;19.60;48.50;;;;;;5088238;28;20015;-69
2023/06/04 11:40:21;;;;;;;;;;;19.60;48.50;;;;;;5088262;28;20390;-68
2023/06/04 11:42:47;;;;;;;;;;;19.70;48.60;;;;;;5088486;28;19931;-68
2023/06/04 11:45:14;;;;;;;;;;;19.60;48.50;;;;;;5088412;28;19920;-69
2023/06/04 11:47:44;;;;;;;;;;;19.60;48.50;;;;;;5088013;28;19920;-69
2023/06/04 11:50:09;;;;;;;;;;;19.60;48.50;;;;;;5088405;28;19927;-68
2023/06/04 11:52:36;;;;;;;;;;;19.70;48.60;;;;;;5087960;28;19920;-68
2023/06/04 11:55:01;;;;;;;;;;;19.70;48.60;;;;;;5088056;28;19924;-75
2023/06/04 11:57:27;;;;;;;;;;;19.60;48.50;;;;;;5087748;28;20361;-69
2023/06/04 11:59:53;;;;;;;;;;;19.70;48.60;;;;;;5087966;28;19928;-69
2023/06/04 12:02:19;;;;;;;;;;;19.70;48.90;;;;;;5088174;28;19924;-68
2023/06/04 12:04:45;;;;;;;;;;;19.70;48.60;;;;;;5087816;28;19920;-68
2023/06/04 12:07:11;;;;;;;;;;;19.70;48.60;;;;;;5088010;28;20339;-69
2023/06/04 12:09:39;;;;;;;;;;;19.70;48.60;;;;;;5087965;28;19968;-69
2023/06/04 12:12:05;;;;;;;;;;;19.70;48.60;;;;;;5087409;28;19920;-69
2023/06/04 12:14:30;;;;;;;;;;;19.70;48.60;;;;;;5089103;28;19924;-68
2023/06/04 12:19:51;;;;;;;;;;;19.70;48.60;;;;;;5110355;27;19918;-73
2023/06/04 12:22:17;;;;;;;;;;;19.70;48.60;;;;;;5108934;28;19920;-69
2023/06/04 12:24:46;;;;;;;;;;;19.80;48.60;;;;;;5109122;28;19942;-69
2023/06/04 12:27:12;;;;;;;;;;;19.80;48.60;;;;;;5109047;28;19967;-68
2023/06/04 12:29:37;;;;;;;;;;;19.80;48.60;;;;;;5109120;28;19975;-68
2023/06/04 12:32:04;;;;;;;;;;;19.80;48.60;;;;;;5108742;28;19990;-68
2023/06/04 12:34:31;;;;;;;;;;;19.80;48.60;;;;;;5109050;28;19927;-68
2023/06/04 12:36:56;;;;;;;;;;;19.80;48.60;;;;;;5109130;28;19963;-68
2023/06/04 12:39:22;;;;;;;;;;;19.70;48.50;;;;;;5108586;28;19978;-69
2023/06/04 12:41:48;;;;;;;;;;;19.90;48.70;;;;;;5108668;28;19927;-69
2023/06/04 12:44:13;;;;;;;;;;;19.80;48.60;;;;;;5109787;28;20018;-69
2023/06/04 12:46:39;;;;;;;;;;;19.90;48.60;;;;;;5108515;28;20057;-69
2023/06/04 12:49:05;;;;;;;;;;;19.80;48.50;;;;;;5108723;28;19920;-69
2023/06/04 12:51:31;;;;;;;;;;;19.80;48.50;;;;;;5108474;28;19945;-68
2023/06/04 12:53:57;;;;;;;;;;;19.90;48.60;;;;;;5109508;28;20019;-69
2023/06/04 12:56:22;;;;;;;;;;;19.90;48.60;;;;;;5108858;28;19924;-68
2023/06/04 12:58:48;;;;;;;;;;;19.80;48.50;;;;;;5108174;28;19928;-69
2023/06/04 13:01:14;;;;;;;;;;;19.90;48.50;;;;;;5108207;28;19970;-69
2023/06/04 13:03:40;;;;;;;;;;;19.90;48.50;;;;;;5108089;28;20394;-68
2023/06/04 13:06:05;;;;;;;;;;;19.90;48.50;;;;;;5108485;28;19920;-69
2023/06/04 13:08:31;;;;;;;;;;;19.90;48.50;;;;;;5108363;28;19920;-69
2023/06/04 13:10:57;;;;;;;;;;;19.90;48.50;;;;;;5108260;28;19927;-68
2023/06/04 13:13:22;;;;;;;;;;;19.90;48.50;;;;;;5107894;28;19924;-69
2023/06/04 13:15:48;;;;;;;;;;;19.90;48.40;;;;;;5109212;28;19931;-69
2023/06/04 13:18:13;;;;;;;;;;;19.90;48.50;;;;;;5107711;28;20367;-69
2023/06/04 13:20:40;;;;;;;;;;;20.00;48.50;;;;;;5109087;28;20010;-69
2023/06/04 13:23:05;;;;;;;;;;;20.00;48.50;;;;;;5107784;28;19920;-69
2023/06/04 13:25:33;;;;;;;;;;;20.00;48.50;;;;;;5107886;28;20006;-68
2023/06/04 13:27:59;;;;;;;;;;;20.00;48.50;;;;;;5108062;28;19922;-68
2023/06/04 13:30:24;;;;;;;;;;;20.00;48.50;;;;;;5097153;28;20010;-69
2023/06/04 13:32:50;;;;;;;;;;;20.00;48.50;;;;;;5094344;28;20432;-69
2023/06/04 13:35:15;;;;;;;;;;;20.00;48.50;;;;;;5128077;27;20413;-69
2023/06/04 13:37:41;;;;;;;;;;;20.00;48.40;;;;;;5093829;28;19924;-68
2023/06/04 13:40:07;;;;;;;;;;;20.00;48.40;;;;;;5095042;28;19920;-68
2023/06/04 13:42:32;;;;;;;;;;;20.00;48.40;;;;;;5095369;28;20390;-69
2023/06/04 13:44:58;;;;;;;;;;;20.00;48.40;;;;;;5095072;28;19969;-69
2023/06/04 13:47:24;;;;;;;;;;;20.00;48.40;;;;;;5093721;28;19920;-68
2023/06/04 13:49:50;;;;;;;;;;;20.00;48.40;;;;;;5093893;28;19920;-69
2023/06/04 13:52:15;;;;;;;;;;;20.10;48.40;;;;;;5127882;27;20386;-69
2023/06/04 13:54:41;;;;;;;;;;;20.00;48.40;;;;;;5093828;28;20357;-68
2023/06/04 13:57:07;;;;;;;;;;;20.10;48.40;;;;;;5093943;28;19935;-69
2023/06/04 13:59:33;;;;;;;;;;;20.10;48.40;;;;;;5093709;28;19979;-74
2023/06/04 14:01:59;;;;;;;;;;;20.10;48.40;;;;;;5093490;28;19930;-69
2023/06/04 14:04:25;;;;;;;;;;;20.10;48.40;;;;;;5093503;28;19920;-69
2023/06/04 14:06:50;;;;;;;;;;;20.10;48.40;;;;;;5093329;28;19973;-68
2023/06/04 14:09:16;;;;;;;;;;;20.10;48.40;;;;;;5094716;28;20252;-69
2023/06/04 14:11:41;;;;;;;;;;;20.10;48.40;;;;;;5093045;28;19920;-69
2023/06/04 14:14:07;;;;;;;;;;;20.10;48.40;;;;;;5093302;28;19920;-69
2023/06/04 14:16:33;;;;;;;;;;;20.20;48.40;;;;;;5093472;28;19920;-69
2023/06/04 14:18:59;;;;;;;;;;;20.20;48.50;;;;;;5109791;28;19968;-69
2023/06/04 14:21:26;;;;;;;;;;;20.20;48.40;;;;;;5096439;28;20002;-69